Terminal Aerodrome Forecast
Issued by NWS Memphis, TN

Home | Current Version | Previous Version | Text Only | Print | Product List | Glossary On
Versions: 1 2 3 4 5 6 7 8 9 10 11 12 13 14 15 16 17 18
000
FTUS44 KMEG 181731
TAFJBR
TAF
KJBR 181731Z 1818/1918 07005KT P6SM BKN030 OVC100
     FM182100 08004KT P6SM BKN035
     FM190100 07004KT P6SM VCSH BKN020 OVC030
     FM190600 06004KT 4SM -SHRA BR OVC005
     FM190900 08005KT 4SM SHRA BR OVC004=

USA.gov is the U.S. government's official web portal to all federal, state and local government web resources and services.